Terminal Aerodrome Forecast
Issued by NWS Wakefield, VA

Home | Current Version | Previous Version | Text Only | Print | Product List | Glossary On
Versions: 1 2 3 4 5 6 7 8 9 10 11 12 13 14
000
FTUS41 KAKQ 272337
TAFRIC
TAF
KRIC 272337Z 2800/2824 VRB20G30KT 3SM TSRA BKN040CB OVC100
     FM280100 19006KT P6SM SCT035 BKN100
     FM281600 15005KT P6SM BKN050=

USA.gov is the U.S. government's official web portal to all federal, state and local government web resources and services.